createdAt,value
2017-08-24T00:01:34.875Z,9.27
2017-08-24T00:04:02.420Z,8.90
2017-08-24T00:06:29.982Z,7.43
2017-08-24T00:08:57.515Z,8.13
2017-08-24T00:11:27.156Z,10.47
2017-08-24T00:13:55.601Z,8.65
2017-08-24T00:16:23.110Z,8.88
2017-08-24T00:18:50.755Z,9.23
2017-08-24T00:21:18.280Z,8.97
2017-08-24T00:23:45.793Z,9.63
2017-08-24T00:26:13.297Z,9.00
2017-08-24T00:28:40.865Z,9.53
2017-08-24T00:31:08.774Z,9.17
2017-08-24T00:33:39.972Z,9.20
2017-08-24T00:36:07.484Z,8.88
2017-08-24T00:38:35.003Z,8.83
2017-08-24T00:41:03.297Z,9.38
2017-08-24T00:43:30.839Z,8.97
2017-08-24T00:45:59.735Z,9.10
2017-08-24T00:48:30.434Z,9.50
2017-08-24T00:50:58.019Z,9.67
2017-08-24T00:53:25.579Z,8.93
2017-08-24T00:55:53.139Z,10.20
2017-08-24T00:58:20.667Z,10.73
2017-08-24T01:00:48.620Z,10.80
2017-08-24T01:03:16.180Z,10.10
2017-08-24T01:05:43.735Z,12.10
2017-08-24T01:08:11.301Z,9.50
2017-08-24T01:10:38.842Z,10.40
2017-08-24T01:13:07.791Z,9.88
2017-08-24T01:15:36.067Z,10.73
2017-08-24T01:18:03.570Z,9.27
2017-08-24T01:20:31.082Z,9.57
2017-08-24T01:22:58.591Z,9.73
2017-08-24T01:25:26.861Z,8.63
2017-08-24T01:27:55.131Z,9.10
2017-08-24T01:30:22.638Z,9.50
2017-08-24T01:32:50.168Z,9.90
2017-08-24T01:35:17.675Z,9.90
2017-08-24T01:37:45.800Z,10.40
2017-08-24T01:40:13.340Z,9.82
2017-08-24T01:42:40.915Z,10.83
2017-08-24T01:45:08.540Z,11.17
2017-08-24T01:47:36.048Z,11.40
2017-08-24T01:50:03.563Z,11.90
2017-08-24T01:52:34.685Z,12.80
2017-08-24T01:55:02.751Z,11.00
2017-08-24T01:57:30.290Z,11.80
2017-08-24T01:59:57.803Z,10.40
2017-08-24T02:02:25.372Z,11.70
2017-08-24T02:04:58.482Z,10.80
2017-08-24T02:07:29.678Z,11.23
2017-08-24T02:09:57.214Z,10.40
2017-08-24T02:12:25.302Z,10.97
2017-08-24T02:14:52.863Z,11.50
2017-08-24T02:17:20.426Z,11.37
2017-08-24T02:19:51.759Z,10.37
2017-08-24T02:22:19.293Z,9.80
2017-08-24T02:24:47.605Z,9.90
2017-08-24T02:27:15.808Z,11.47
2017-08-24T02:29:43.322Z,10.37
2017-08-24T02:32:10.887Z,10.85
2017-08-24T02:34:39.379Z,11.13
2017-08-24T02:37:11.321Z,11.20
2017-08-24T02:39:38.896Z,11.12
2017-08-24T02:42:06.441Z,11.20
2017-08-24T02:44:35.279Z,10.95
2017-08-24T02:47:02.798Z,11.10
2017-08-24T02:49:30.720Z,11.77
2017-08-24T02:52:01.813Z,10.45
2017-08-24T02:54:30.012Z,11.95
2017-08-24T02:56:57.553Z,9.20
2017-08-24T02:59:25.312Z,10.00
2017-08-24T03:01:53.750Z,11.07
2017-08-24T03:04:21.276Z,10.75
2017-08-24T03:06:48.835Z,10.27
2017-08-24T03:09:19.348Z,10.23
2017-08-24T03:11:46.853Z,11.00
2017-08-24T03:14:15.159Z,10.57
2017-08-24T03:16:44.164Z,11.00
2017-08-24T03:19:11.704Z,10.60
2017-08-24T03:21:41.550Z,11.17
2017-08-24T03:24:09.098Z,11.80
2017-08-24T03:26:36.644Z,12.07
2017-08-24T03:29:04.919Z,11.15
2017-08-24T03:31:33.516Z,10.58
2017-08-24T03:34:01.084Z,12.00
2017-08-24T03:36:30.310Z,11.20
2017-08-24T03:39:01.758Z,11.80
2017-08-24T03:41:29.278Z,12.10
2017-08-24T03:43:58.756Z,11.23
2017-08-24T03:46:26.275Z,11.57
2017-08-24T03:48:53.792Z,11.80
2017-08-24T03:51:25.593Z,12.03
2017-08-24T03:53:53.128Z,11.53
2017-08-24T03:56:21.406Z,11.30
2017-08-24T03:58:49.879Z,11.65
2017-08-24T04:01:17.506Z,10.60
2017-08-24T04:03:45.044Z,10.83
2017-08-24T04:06:12.951Z,12.43
2017-08-24T04:08:47.596Z,11.10
2017-08-24T04:11:16.588Z,11.40
2017-08-24T04:13:44.893Z,10.90
2017-08-24T04:16:12.816Z,9.30
2017-08-24T04:18:40.377Z,9.03
2017-08-24T04:21:07.885Z,9.30
2017-08-24T04:23:35.406Z,10.30
2017-08-24T04:26:02.923Z,10.17
2017-08-24T04:28:30.444Z,10.40
2017-08-24T04:30:57.975Z,11.90
2017-08-24T04:33:26.244Z,11.30
2017-08-24T04:35:53.781Z,10.82
2017-08-24T04:38:22.564Z,11.68
2017-08-24T04:40:50.064Z,5.07
2017-08-24T04:43:18.391Z,6.60
2017-08-24T04:45:45.896Z,5.00
2017-08-24T04:48:13.863Z,5.80
2017-08-24T04:50:41.380Z,6.77
2017-08-24T04:53:12.219Z,6.57
2017-08-24T04:55:39.719Z,6.60
2017-08-24T04:58:07.288Z,6.13
2017-08-24T05:00:35.883Z,6.85
2017-08-24T05:03:05.095Z,8.35
2017-08-24T05:05:32.603Z,8.80
2017-08-24T05:08:03.722Z,7.60
2017-08-24T05:10:31.232Z,10.13
2017-08-24T05:12:58.739Z,8.07
2017-08-24T05:15:27.279Z,8.57
2017-08-24T05:17:54.786Z,8.03
2017-08-24T05:20:22.836Z,9.17
2017-08-24T05:22:50.339Z,9.60
2017-08-24T05:25:17.851Z,9.20
2017-08-24T05:27:46.139Z,8.90
2017-08-24T05:30:13.795Z,9.73
2017-08-24T05:32:41.352Z,9.27
2017-08-24T05:35:08.855Z,8.77
2017-08-24T05:37:36.389Z,7.62
2017-08-24T05:40:03.931Z,8.93
2017-08-24T05:42:31.540Z,8.27
2017-08-24T05:44:59.082Z,9.70
2017-08-24T05:47:27.957Z,7.93
2017-08-24T05:49:55.475Z,8.20
2017-08-24T05:52:23.031Z,8.13
2017-08-24T05:54:50.553Z,7.10
2017-08-24T05:57:21.180Z,8.38
2017-08-24T05:59:48.688Z,8.73
2017-08-24T06:02:16.540Z,8.02
2017-08-24T06:04:44.072Z,9.30
2017-08-24T06:07:11.587Z,8.67
2017-08-24T06:09:42.866Z,8.75
2017-08-24T06:12:11.331Z,9.30
2017-08-24T06:14:38.826Z,8.27
2017-08-24T06:17:06.411Z,7.68
2017-08-24T06:19:33.940Z,7.72
2017-08-24T06:22:01.808Z,7.33
2017-08-24T06:24:29.324Z,8.07
2017-08-24T06:26:56.828Z,7.93
2017-08-24T06:29:29.285Z,7.40
2017-08-24T06:31:56.792Z,8.83
2017-08-24T06:34:25.061Z,7.90
2017-08-24T06:36:53.075Z,8.93
2017-08-24T06:39:23.931Z,8.57
2017-08-24T06:41:51.432Z,7.10
2017-08-24T06:44:19.881Z,8.65
2017-08-24T06:46:47.419Z,7.18
2017-08-24T06:49:14.919Z,8.17
2017-08-24T06:51:42.467Z,8.90
2017-08-24T06:54:09.967Z,8.90
2017-08-24T06:56:37.499Z,7.85
2017-08-24T06:59:05.011Z,7.73
2017-08-24T07:01:34.204Z,8.10
2017-08-24T07:04:01.755Z,7.80
2017-08-24T07:06:29.279Z,8.00
2017-08-24T07:08:56.788Z,7.53
2017-08-24T07:11:24.372Z,7.07
2017-08-24T07:13:53.556Z,8.23
2017-08-24T07:16:22.023Z,7.87
2017-08-24T07:18:49.571Z,8.33
2017-08-24T07:21:17.734Z,6.82
2017-08-24T07:23:45.257Z,7.47
2017-08-24T07:26:16.399Z,7.80
2017-08-24T07:28:50.624Z,9.10
2017-08-24T07:31:18.547Z,7.35
2017-08-24T07:33:46.067Z,6.85
2017-08-24T07:36:13.589Z,6.75
2017-08-24T07:38:41.128Z,7.43
2017-08-24T07:41:09.411Z,8.50
2017-08-24T07:43:39.356Z,7.90
2017-08-24T07:46:06.895Z,8.70
2017-08-24T07:48:34.599Z,7.65
2017-08-24T07:51:02.412Z,7.45
2017-08-24T07:53:29.924Z,7.33
2017-08-24T07:56:01.276Z,7.47
2017-08-24T07:58:28.801Z,8.07
2017-08-24T08:00:58.007Z,7.93
2017-08-24T08:03:25.517Z,7.10
2017-08-24T08:05:53.020Z,7.70
2017-08-24T08:08:20.549Z,7.43
2017-08-24T08:10:51.231Z,6.73
2017-08-24T08:13:19.495Z,7.27
2017-08-24T08:15:47.380Z,7.90
2017-08-24T08:18:14.932Z,8.15
2017-08-24T08:20:42.472Z,8.23
2017-08-24T08:23:10.046Z,6.57
2017-08-24T08:25:37.564Z,7.30
2017-08-24T08:28:06.467Z,6.45
2017-08-24T08:30:34.024Z,6.97
2017-08-24T08:33:01.599Z,7.00
2017-08-24T08:35:29.160Z,6.57
2017-08-24T08:37:56.862Z,6.13
2017-08-24T08:40:25.975Z,5.77
2017-08-24T08:42:53.480Z,6.53
2017-08-24T08:45:21.778Z,6.43
2017-08-24T08:47:49.605Z,6.47
2017-08-24T08:50:17.144Z,6.20
2017-08-24T08:52:44.644Z,5.27
2017-08-24T08:55:12.218Z,5.53
2017-08-24T08:57:39.719Z,6.20
2017-08-24T09:00:07.227Z,6.63
2017-08-24T09:02:35.543Z,6.10
2017-08-24T09:05:03.480Z,6.97
2017-08-24T09:07:30.979Z,6.47
2017-08-24T09:09:58.539Z,7.20
2017-08-24T09:12:30.547Z,6.07
2017-08-24T09:14:58.654Z,6.25
2017-08-24T09:17:26.172Z,7.30
2017-08-24T09:19:53.695Z,6.43
2017-08-24T09:22:21.211Z,7.27
2017-08-24T09:24:48.747Z,7.87
2017-08-24T09:27:17.219Z,7.60
2017-08-24T09:29:46.793Z,8.00
2017-08-24T09:32:14.357Z,7.83
2017-08-24T09:34:41.873Z,9.30
2017-08-24T09:37:09.413Z,9.80
2017-08-24T09:39:36.980Z,9.10
2017-08-24T09:42:04.940Z,9.17
2017-08-24T09:44:32.463Z,10.80
2017-08-24T09:46:59.982Z,9.73
2017-08-24T09:49:27.515Z,10.77
2017-08-24T09:51:55.828Z,10.53
2017-08-24T09:54:23.379Z,11.02
2017-08-24T09:56:50.908Z,11.53
2017-08-24T09:59:18.420Z,10.93
2017-08-24T10:01:46.201Z,9.88
2017-08-24T10:04:13.713Z,10.15
2017-08-24T10:06:41.240Z,10.97
2017-08-24T10:09:09.371Z,10.10
2017-08-24T10:11:37.646Z,10.95
2017-08-24T10:14:05.160Z,12.07
2017-08-24T10:16:40.070Z,11.57
2017-08-24T10:19:07.585Z,12.50
2017-08-24T10:21:35.161Z,12.87
2017-08-24T10:24:02.719Z,13.37
2017-08-24T10:26:30.232Z,15.33
2017-08-24T10:28:58.401Z,13.73
2017-08-24T10:31:26.059Z,13.93
2017-08-24T10:33:53.639Z,13.70
2017-08-24T10:36:21.940Z,14.82
2017-08-24T10:38:49.451Z,14.67
2017-08-24T10:41:16.961Z,12.93
2017-08-24T10:43:48.055Z,12.30
2017-08-24T10:46:15.584Z,13.48
2017-08-24T10:48:44.268Z,11.75
2017-08-24T10:51:11.800Z,11.38
2017-08-24T10:53:39.320Z,12.20
2017-08-24T10:56:06.831Z,12.23
2017-08-24T10:58:38.524Z,11.23
2017-08-24T11:01:06.041Z,13.17
2017-08-24T11:03:33.615Z,13.30
2017-08-24T11:06:01.160Z,12.00
2017-08-24T11:08:28.772Z,11.30
2017-08-24T11:10:56.300Z,13.00
2017-08-24T11:13:23.808Z,14.07
2017-08-24T11:15:59.463Z,13.45
2017-08-24T11:18:27.919Z,12.80
2017-08-24T11:20:56.487Z,11.63
2017-08-24T11:23:23.992Z,12.73
2017-08-24T11:25:51.503Z,12.10
2017-08-24T11:28:20.053Z,13.30
2017-08-24T11:30:47.576Z,10.40
2017-08-24T11:33:15.083Z,8.93
2017-08-24T11:35:43.369Z,9.00
2017-08-24T11:38:12.612Z,7.40
2017-08-24T11:40:40.110Z,8.10
2017-08-24T11:43:07.616Z,7.87
2017-08-24T11:45:36.845Z,7.40
2017-08-24T11:48:04.349Z,7.20
2017-08-24T11:50:31.852Z,7.13
2017-08-24T11:52:59.432Z,6.90
2017-08-24T11:55:26.937Z,7.50
2017-08-24T11:57:54.451Z,6.43
2017-08-24T12:00:21.951Z,7.60
2017-08-24T12:02:50.321Z,6.80
2017-08-24T12:05:17.861Z,7.67
2017-08-24T12:07:45.394Z,6.57
2017-08-24T12:10:12.904Z,7.32
2017-08-24T12:12:40.407Z,6.73
2017-08-24T12:15:09.427Z,6.87
2017-08-24T12:17:37.810Z,7.43
2017-08-24T12:20:05.315Z,6.43
2017-08-24T12:22:32.847Z,7.40
2017-08-24T12:25:00.361Z,6.37
2017-08-24T12:27:28.825Z,6.50
2017-08-24T12:29:56.359Z,6.67
2017-08-24T12:32:26.890Z,6.90
2017-08-24T12:34:54.638Z,6.80
2017-08-24T12:37:22.203Z,6.67
2017-08-24T12:39:50.217Z,5.53
2017-08-24T12:42:17.879Z,6.03
2017-08-24T12:44:46.317Z,5.67
2017-08-24T12:47:13.840Z,5.30
2017-08-24T12:49:41.352Z,6.30
2017-08-24T12:52:08.862Z,5.70
2017-08-24T12:54:37.427Z,5.60
2017-08-24T12:57:04.963Z,4.90
2017-08-24T12:59:32.524Z,5.70
2017-08-24T13:02:00.023Z,4.97
2017-08-24T13:04:32.484Z,4.47
2017-08-24T13:07:00.047Z,5.27
2017-08-24T13:09:27.716Z,4.00
2017-08-24T13:11:55.236Z,5.00
2017-08-24T13:14:23.511Z,4.47
2017-08-24T13:16:54.381Z,3.90
2017-08-24T13:19:25.802Z,4.45
2017-08-24T13:21:53.348Z,3.73
2017-08-24T13:24:21.643Z,3.95
2017-08-24T13:26:49.912Z,4.70
2017-08-24T13:29:17.442Z,4.03
2017-08-24T13:31:46.126Z,3.93
2017-08-24T13:34:14.435Z,4.37
2017-08-24T13:36:41.981Z,4.15
2017-08-24T13:39:09.492Z,4.27
2017-08-24T13:41:37.000Z,4.37
2017-08-24T13:44:04.509Z,4.60
2017-08-24T13:46:32.026Z,4.70
2017-08-24T13:48:59.939Z,3.80
2017-08-24T13:51:27.951Z,4.07
2017-08-24T13:53:58.796Z,4.76
2017-08-24T13:56:26.316Z,3.83
2017-08-24T13:58:53.817Z,4.30
2017-08-24T14:01:23.034Z,4.17
2017-08-24T14:03:50.555Z,5.87
2017-08-24T14:06:18.552Z,5.10
2017-08-24T14:08:46.086Z,5.03
2017-08-24T14:11:14.339Z,4.82
2017-08-24T14:13:41.858Z,5.20
2017-08-24T14:16:09.411Z,4.27
2017-08-24T14:18:37.687Z,5.10
2017-08-24T14:21:05.219Z,4.57
2017-08-24T14:23:33.180Z,4.55
2017-08-24T14:26:00.687Z,4.27
2017-08-24T14:28:28.183Z,5.07
2017-08-24T14:30:55.711Z,5.03
2017-08-24T14:33:23.219Z,4.83
2017-08-24T14:35:51.443Z,4.53
2017-08-24T14:38:18.964Z,4.47
2017-08-24T14:40:47.405Z,4.57
2017-08-24T14:43:14.912Z,4.40
2017-08-24T14:45:42.487Z,4.80
2017-08-24T14:48:10.043Z,4.20
2017-08-24T14:50:38.364Z,5.00
2017-08-24T14:53:07.027Z,3.83
2017-08-24T14:55:34.537Z,4.78
2017-08-24T14:58:02.040Z,4.70
2017-08-24T15:00:30.100Z,4.20
2017-08-24T15:02:59.953Z,4.20
2017-08-24T15:05:27.504Z,4.70
2017-08-24T15:07:57.827Z,4.30
2017-08-24T15:10:26.328Z,4.47
2017-08-24T15:12:53.857Z,4.30
2017-08-24T15:15:21.826Z,4.50
2017-08-24T15:17:49.335Z,4.60
2017-08-24T15:20:16.855Z,5.50
2017-08-24T15:22:47.381Z,4.95
2017-08-24T15:25:15.186Z,5.30
2017-08-24T15:27:42.794Z,5.00
2017-08-24T15:30:11.129Z,4.53
2017-08-24T15:32:38.648Z,4.15
2017-08-24T15:35:06.167Z,4.67
2017-08-24T15:37:33.685Z,4.13
2017-08-24T15:40:01.195Z,4.00
2017-08-24T15:42:30.104Z,4.47
2017-08-24T15:44:57.645Z,3.35
2017-08-24T15:47:25.159Z,4.33
2017-08-24T15:49:53.683Z,3.92
2017-08-24T15:52:21.181Z,3.30
2017-08-24T15:54:49.452Z,3.70
2017-08-24T15:57:16.958Z,3.60
2017-08-24T15:59:44.476Z,3.83
2017-08-24T16:02:11.992Z,3.62
2017-08-24T16:04:39.516Z,4.47
2017-08-24T16:07:07.611Z,3.58
2017-08-24T16:09:35.107Z,4.27
2017-08-24T16:12:02.619Z,3.77
2017-08-24T16:14:30.378Z,4.17
2017-08-24T16:16:57.884Z,4.53
2017-08-24T16:19:25.467Z,3.03
2017-08-24T16:21:53.759Z,3.20
2017-08-24T16:24:21.283Z,4.07
2017-08-24T16:26:48.847Z,4.28
2017-08-24T16:29:16.371Z,4.20
2017-08-24T16:31:43.879Z,3.43
2017-08-24T16:34:13.447Z,3.20
2017-08-24T16:36:40.955Z,4.07
2017-08-24T16:39:08.455Z,3.83
2017-08-24T16:41:36.016Z,3.60
2017-08-24T16:44:03.540Z,4.15
2017-08-24T16:46:31.092Z,3.70
2017-08-24T16:48:59.375Z,3.78
2017-08-24T16:51:26.927Z,4.67
2017-08-24T16:53:54.429Z,4.43
2017-08-24T16:56:21.948Z,4.70
2017-08-24T16:58:49.507Z,4.60
2017-08-24T17:01:17.008Z,4.13
2017-08-24T17:03:44.516Z,4.00
2017-08-24T17:06:13.775Z,4.70
2017-08-24T17:08:41.322Z,4.75
2017-08-24T17:11:08.840Z,4.43
2017-08-24T17:13:36.395Z,4.13
2017-08-24T17:16:03.932Z,4.30
2017-08-24T17:18:33.148Z,5.25
2017-08-24T17:21:00.687Z,5.13
2017-08-24T17:23:28.220Z,5.17
2017-08-24T17:25:55.757Z,4.47
2017-08-24T17:28:23.312Z,5.23
2017-08-24T17:30:51.660Z,4.60
2017-08-24T17:33:19.276Z,4.22
2017-08-24T17:35:51.113Z,4.35
2017-08-24T17:38:18.647Z,4.87
2017-08-24T17:40:46.585Z,4.80
2017-08-24T17:43:14.103Z,4.53
2017-08-24T17:45:41.645Z,5.28
2017-08-24T17:48:09.252Z,5.40
2017-08-24T17:50:40.364Z,5.50
2017-08-24T17:53:08.651Z,4.40
2017-08-24T17:55:36.958Z,4.32
2017-08-24T17:58:05.608Z,5.13
2017-08-24T18:00:33.884Z,5.17
2017-08-24T18:03:02.575Z,4.77
2017-08-24T18:05:30.574Z,5.28
2017-08-24T18:07:58.076Z,4.80
2017-08-24T18:10:25.592Z,5.13
2017-08-24T18:12:53.095Z,5.50
2017-08-24T18:15:20.606Z,4.70
2017-08-24T18:17:48.122Z,5.77
2017-08-24T18:20:15.625Z,4.82
2017-08-24T18:22:43.144Z,5.23
2017-08-24T18:25:10.660Z,5.37
2017-08-24T18:27:38.776Z,4.97
2017-08-24T18:30:06.295Z,5.55
2017-08-24T18:32:33.991Z,5.73
2017-08-24T18:35:01.500Z,4.67
2017-08-24T18:37:29.020Z,5.62
2017-08-24T18:39:56.538Z,5.63
2017-08-24T18:42:24.955Z,6.00
2017-08-24T18:44:52.479Z,6.03
2017-08-24T18:47:20.063Z,5.53
2017-08-24T18:49:47.593Z,5.60
2017-08-24T18:52:16.761Z,7.40
2017-08-24T18:54:44.328Z,5.70
2017-08-24T18:57:12.078Z,6.25
2017-08-24T18:59:39.824Z,6.10
2017-08-24T19:02:07.380Z,6.90
2017-08-24T19:04:35.356Z,6.82
2017-08-24T19:07:02.893Z,6.30
2017-08-24T19:09:31.243Z,5.80
2017-08-24T19:11:59.520Z,6.40
2017-08-24T19:14:27.124Z,6.67
2017-08-24T19:16:54.631Z,6.20
2017-08-24T19:19:22.395Z,5.40
2017-08-24T19:21:53.748Z,5.55
2017-08-24T19:24:24.907Z,6.17
2017-08-24T19:26:52.552Z,4.75
2017-08-24T19:29:20.619Z,4.32
2017-08-24T19:31:48.294Z,4.30
2017-08-24T19:34:15.834Z,3.87
2017-08-24T19:36:43.403Z,3.67
2017-08-24T19:39:10.963Z,3.87
2017-08-24T19:41:38.506Z,3.67
2017-08-24T19:44:06.662Z,3.77
2017-08-24T19:46:34.714Z,3.33
2017-08-24T19:49:02.230Z,3.80
2017-08-24T19:51:29.924Z,3.20
2017-08-24T19:53:57.447Z,3.42
2017-08-24T19:56:25.844Z,3.63
2017-08-24T19:58:54.237Z,3.50
2017-08-24T20:01:21.763Z,3.90
2017-08-24T20:03:50.095Z,3.30
2017-08-24T20:06:18.368Z,3.28
2017-08-24T20:08:49.599Z,3.83
2017-08-24T20:11:17.131Z,3.60
2017-08-24T20:13:44.628Z,4.17
2017-08-24T20:16:13.054Z,3.60
2017-08-24T20:18:40.615Z,4.17
2017-08-24T20:21:08.122Z,3.40
2017-08-24T20:23:35.623Z,3.58
2017-08-24T20:26:03.189Z,4.00
2017-08-24T20:28:30.909Z,4.10
2017-08-24T20:30:58.436Z,3.53
2017-08-24T20:33:27.519Z,3.97
2017-08-24T20:35:55.064Z,3.97
2017-08-24T20:38:22.648Z,5.20
2017-08-24T20:40:58.236Z,3.53
2017-08-24T20:43:25.735Z,4.45
2017-08-24T20:45:53.264Z,4.97
2017-08-24T20:48:22.464Z,4.53
2017-08-24T20:50:52.918Z,3.17
2017-08-24T20:53:20.475Z,4.33
2017-08-24T20:55:51.539Z,4.70
2017-08-24T20:58:19.095Z,4.30
2017-08-24T21:00:47.708Z,4.95
2017-08-24T21:03:15.253Z,4.10
2017-08-24T21:05:42.755Z,3.55
2017-08-24T21:08:11.471Z,4.55
2017-08-24T21:10:39.035Z,4.20
2017-08-24T21:13:06.592Z,4.37
2017-08-24T21:15:34.110Z,4.27
2017-08-24T21:18:01.613Z,4.57
2017-08-24T21:20:29.126Z,4.00
2017-08-24T21:22:56.656Z,3.67
2017-08-24T21:25:29.367Z,3.80
2017-08-24T21:27:56.911Z,4.40
2017-08-24T21:30:24.460Z,4.07
2017-08-24T21:32:51.967Z,3.53
2017-08-24T21:35:20.180Z,3.67
2017-08-24T21:37:47.700Z,3.83
2017-08-24T21:40:18.208Z,4.50
2017-08-24T21:42:45.716Z,4.03
2017-08-24T21:45:13.307Z,4.00
2017-08-24T21:47:40.811Z,3.93
2017-08-24T21:50:08.354Z,3.57
2017-08-24T21:52:35.862Z,4.40
2017-08-24T21:55:08.081Z,4.55
2017-08-24T21:57:35.593Z,3.63
2017-08-24T22:00:04.800Z,4.20
2017-08-24T22:02:32.314Z,4.50
2017-08-24T22:05:00.970Z,4.15
2017-08-24T22:07:29.395Z,4.93
2017-08-24T22:09:57.378Z,5.10
2017-08-24T22:12:24.880Z,4.62
2017-08-24T22:14:52.384Z,3.97
2017-08-24T22:17:19.891Z,4.10
2017-08-24T22:19:49.088Z,4.43
2017-08-24T22:22:16.588Z,4.50
2017-08-24T22:24:45.598Z,4.13
2017-08-24T22:27:13.278Z,4.05
2017-08-24T22:29:41.551Z,4.10
2017-08-24T22:32:09.115Z,4.87
2017-08-24T22:34:36.621Z,4.75
2017-08-24T22:37:04.160Z,5.10
2017-08-24T22:39:32.260Z,4.80
2017-08-24T22:42:00.690Z,5.25
2017-08-24T22:44:28.198Z,5.13
2017-08-24T22:46:55.847Z,4.77
2017-08-24T22:49:23.351Z,5.17
2017-08-24T22:51:51.621Z,4.68
2017-08-24T22:54:25.717Z,4.13
2017-08-24T22:57:00.953Z,5.40
2017-08-24T22:59:34.116Z,4.97
2017-08-24T23:02:07.991Z,3.80
2017-08-24T23:04:35.888Z,5.00
2017-08-24T23:07:03.397Z,4.60
2017-08-24T23:09:31.469Z,4.60
2017-08-24T23:12:02.289Z,4.27
2017-08-24T23:14:29.860Z,4.87
2017-08-24T23:16:57.420Z,4.77
2017-08-24T23:19:24.999Z,4.50
2017-08-24T23:21:52.507Z,4.60
2017-08-24T23:24:20.821Z,5.23
2017-08-24T23:26:52.927Z,5.50
2017-08-24T23:29:20.451Z,5.17
2017-08-24T23:31:48.005Z,5.50
2017-08-24T23:34:15.547Z,5.40
2017-08-24T23:36:43.882Z,5.82
2017-08-24T23:39:11.415Z,5.40
2017-08-24T23:41:39.141Z,4.87
2017-08-24T23:44:06.676Z,5.37
2017-08-24T23:46:34.180Z,4.37
2017-08-24T23:49:03.486Z,4.10
2017-08-24T23:51:31.047Z,4.30
2017-08-24T23:53:58.547Z,5.27
2017-08-24T23:56:31.027Z,4.70
2017-08-24T23:58:59.004Z,5.03
